createdAt,value
2022-09-23T00:01:22.253Z,22.32
2022-09-23T00:03:50.691Z,22.29
2022-09-23T00:06:24.419Z,22.22
2022-09-23T00:08:52.657Z,22.24
2022-09-23T00:11:26.706Z,22.08
2022-09-23T00:13:57.503Z,22.15
2022-09-23T00:16:28.907Z,22.15
2022-09-23T00:19:05.853Z,22.15
2022-09-23T00:21:40.503Z,22.03
2022-09-23T00:24:08.932Z,22.09
2022-09-23T00:26:36.952Z,21.97
2022-09-23T00:29:04.897Z,22.05
2022-09-23T00:31:32.990Z,21.90
2022-09-23T00:34:19.158Z,22.01
2022-09-23T00:36:47.457Z,21.93
2022-09-23T00:39:25.113Z,21.90
2022-09-23T00:41:53.565Z,21.86
2022-09-23T00:44:47.314Z,21.85
2022-09-23T00:47:41.404Z,21.84
2022-09-23T00:50:10.296Z,21.90
2022-09-23T00:52:44.627Z,21.91
2022-09-23T00:55:18.827Z,21.99
2022-09-23T00:57:48.234Z,22.02
2022-09-23T01:00:16.999Z,22.02
2022-09-23T01:02:49.557Z,22.06
2022-09-23T01:05:18.887Z,22.06
2022-09-23T01:07:50.589Z,22.07
2022-09-23T01:10:19.084Z,22.07
2022-09-23T01:13:06.357Z,22.06
2022-09-23T01:16:12.383Z,22.07
2022-09-23T01:18:40.341Z,22.06
2022-09-23T01:21:20.135Z,22.05
2022-09-23T01:24:08.469Z,22.06
2022-09-23T01:26:57.402Z,22.04
2022-09-23T01:30:02.909Z,22.03
2022-09-23T01:32:39.657Z,21.97
2022-09-23T01:35:39.133Z,21.92
2022-09-23T01:38:22.789Z,21.81
2022-09-23T01:41:14.739Z,21.83
2022-09-23T01:43:52.393Z,21.77
2022-09-23T01:46:28.765Z,21.72
2022-09-23T01:49:10.043Z,21.75
2022-09-23T01:51:46.803Z,21.72
2022-09-23T01:54:24.050Z,21.69
2022-09-23T01:57:14.234Z,21.72
2022-09-23T01:59:51.139Z,21.72
2022-09-23T02:02:53.853Z,21.73
2022-09-23T02:05:46.468Z,21.72
2022-09-23T02:08:43.418Z,21.71
2022-09-23T02:11:16.443Z,21.72
2022-09-23T02:14:10.750Z,21.71
2022-09-23T02:16:49.541Z,21.66
2022-09-23T02:19:25.148Z,21.51
2022-09-23T02:22:40.478Z,21.50
2022-09-23T02:25:10.298Z,21.44
2022-09-23T02:28:10.286Z,21.40
2022-09-23T02:31:12.325Z,21.36
2022-09-23T02:34:52.598Z,21.27
2022-09-23T02:38:06.700Z,21.23
2022-09-23T02:41:06.180Z,21.18
2022-09-23T02:44:16.756Z,21.08
2022-09-23T02:47:14.075Z,21.06
2022-09-23T02:50:05.633Z,20.91
2022-09-23T02:52:55.320Z,20.92
2022-09-23T02:55:52.663Z,20.92
2022-09-23T02:58:41.712Z,20.95
2022-09-23T03:01:48.673Z,20.93
2022-09-23T03:05:00.494Z,20.82
2022-09-23T03:08:27.836Z,20.88
2022-09-23T03:11:10.209Z,20.92
2022-09-23T03:14:23.815Z,21.03
2022-09-23T03:17:17.011Z,21.05
2022-09-23T03:20:00.545Z,21.07
2022-09-23T03:22:34.131Z,20.93
2022-09-23T03:25:09.987Z,20.88
2022-09-23T03:27:39.688Z,20.79
2022-09-23T03:30:09.714Z,20.86
2022-09-23T03:32:39.539Z,20.96
2022-09-23T03:35:09.577Z,20.94
2022-09-23T03:38:00.505Z,20.96
2022-09-23T03:40:44.117Z,20.95
2022-09-23T03:43:14.328Z,20.96
2022-09-23T03:45:43.174Z,20.94
2022-09-23T03:48:11.775Z,21.00
2022-09-23T03:50:40.254Z,20.88
2022-09-23T03:53:08.538Z,20.82
2022-09-23T03:55:39.897Z,20.73
2022-09-23T03:58:08.800Z,20.74
2022-09-23T04:00:37.333Z,20.77
2022-09-23T04:03:10.880Z,20.77
2022-09-23T04:05:39.436Z,20.77
2022-09-23T04:08:07.623Z,20.75
2022-09-23T04:10:36.303Z,20.63
2022-09-23T04:13:04.074Z,20.70
2022-09-23T04:15:33.063Z,20.66
2022-09-23T04:18:01.095Z,20.64
2022-09-23T04:20:29.943Z,20.64
2022-09-23T04:22:57.793Z,20.64
2022-09-23T04:25:25.247Z,20.66
2022-09-23T04:27:53.695Z,20.69
2022-09-23T04:30:21.909Z,20.63
2022-09-23T04:32:53.555Z,20.61
2022-09-23T04:35:21.245Z,20.50
2022-09-23T04:37:49.611Z,20.33
2022-09-23T04:40:17.827Z,20.37
2022-09-23T04:42:48.618Z,20.28
2022-09-23T04:45:16.824Z,20.23
2022-09-23T04:47:45.385Z,20.22
2022-09-23T04:50:13.293Z,20.22
2022-09-23T04:52:41.451Z,20.28
2022-09-23T04:55:11.331Z,20.34
2022-09-23T04:57:39.822Z,20.27
2022-09-23T05:00:09.116Z,20.23
2022-09-23T05:02:44.659Z,20.18
2022-09-23T05:05:14.499Z,20.16
2022-09-23T05:07:43.421Z,20.19
2022-09-23T05:10:11.010Z,20.14
2022-09-23T05:12:44.505Z,20.23
2022-09-23T05:15:13.880Z,20.19
2022-09-23T05:17:43.489Z,20.24
2022-09-23T05:20:12.338Z,20.29
2022-09-23T05:22:40.322Z,20.25
2022-09-23T05:25:09.745Z,20.19
2022-09-23T05:27:37.527Z,20.29
2022-09-23T05:30:06.312Z,20.24
2022-09-23T05:32:33.990Z,20.22
2022-09-23T05:35:08.355Z,20.16
2022-09-23T05:37:36.254Z,20.20
2022-09-23T05:40:04.761Z,20.19
2022-09-23T05:42:32.908Z,20.07
2022-09-23T05:45:00.724Z,20.16
2022-09-23T05:47:29.623Z,20.23
2022-09-23T05:50:00.319Z,20.28
2022-09-23T05:52:28.835Z,20.18
2022-09-23T05:54:56.425Z,20.33
2022-09-23T05:57:24.914Z,20.37
2022-09-23T05:59:52.683Z,20.44
2022-09-23T06:02:20.647Z,20.47
2022-09-23T06:04:50.844Z,20.50
2022-09-23T06:07:21.456Z,20.51
2022-09-23T06:09:49.561Z,20.58
2022-09-23T06:12:18.743Z,20.65
2022-09-23T06:14:46.921Z,20.69
2022-09-23T06:17:14.610Z,20.73
2022-09-23T06:19:48.774Z,20.74
2022-09-23T06:22:18.263Z,20.75
2022-09-23T06:24:45.871Z,20.83
2022-09-23T06:27:14.342Z,20.83
2022-09-23T06:29:42.267Z,20.63
2022-09-23T06:32:09.824Z,20.70
2022-09-23T06:34:50.408Z,20.69
2022-09-23T06:37:21.460Z,20.62
2022-09-23T06:39:55.437Z,20.63
2022-09-23T06:42:23.463Z,20.55
2022-09-23T06:44:50.892Z,20.71
2022-09-23T06:47:19.242Z,20.73
2022-09-23T06:49:46.661Z,20.71
2022-09-23T06:52:14.239Z,20.70
2022-09-23T06:54:42.469Z,20.74
2022-09-23T06:57:10.597Z,20.84
2022-09-23T06:59:38.715Z,20.82
2022-09-23T07:02:07.959Z,20.84
2022-09-23T07:04:35.750Z,20.85
2022-09-23T07:07:04.072Z,20.98
2022-09-23T07:09:37.777Z,21.08
2022-09-23T07:12:05.925Z,21.26
2022-09-23T07:14:35.428Z,21.39
2022-09-23T07:17:04.130Z,21.40
2022-09-23T07:19:32.290Z,21.44
2022-09-23T07:21:59.965Z,21.51
2022-09-23T07:24:28.313Z,21.44
2022-09-23T07:26:56.150Z,21.62
2022-09-23T07:29:24.038Z,21.76
2022-09-23T07:31:52.368Z,21.89
2022-09-23T07:34:21.029Z,21.88
2022-09-23T07:36:48.862Z,22.04
2022-09-23T07:39:16.835Z,22.03
2022-09-23T07:41:44.916Z,22.24
2022-09-23T07:44:12.925Z,22.51
2022-09-23T07:46:40.885Z,22.66
2022-09-23T07:49:08.613Z,22.77
2022-09-23T07:51:38.661Z,22.85
2022-09-23T07:54:14.408Z,22.98
2022-09-23T07:56:43.690Z,23.01
2022-09-23T07:59:18.504Z,23.22
2022-09-23T08:01:53.122Z,23.32
2022-09-23T08:04:29.026Z,23.49
2022-09-23T08:07:03.210Z,23.57
2022-09-23T08:09:41.882Z,23.48
2022-09-23T08:12:17.460Z,23.63
2022-09-23T08:14:46.222Z,23.78
2022-09-23T08:17:14.542Z,23.89
2022-09-23T08:19:42.429Z,24.04
2022-09-23T08:22:09.931Z,24.10
2022-09-23T08:24:37.873Z,24.29
2022-09-23T08:27:05.420Z,24.36
2022-09-23T08:29:32.989Z,24.44
2022-09-23T08:32:00.744Z,24.57
2022-09-23T08:34:29.225Z,24.63
2022-09-23T08:36:57.587Z,24.69
2022-09-23T08:39:25.615Z,24.70
2022-09-23T08:41:58.224Z,24.81
2022-09-23T08:44:30.773Z,24.86
2022-09-23T08:47:07.309Z,24.87
2022-09-23T08:50:07.097Z,24.93
2022-09-23T08:52:59.110Z,24.99
2022-09-23T08:55:31.701Z,25.09
2022-09-23T08:58:24.511Z,25.20
2022-09-23T09:01:20.789Z,25.36
2022-09-23T09:03:49.066Z,25.47
2022-09-23T09:06:23.508Z,25.60
2022-09-23T09:08:58.209Z,25.75
2022-09-23T09:11:49.994Z,25.86
2022-09-23T09:14:44.380Z,25.99
2022-09-23T09:17:25.094Z,26.00
2022-09-23T09:19:59.726Z,26.00
2022-09-23T09:22:49.763Z,26.05
2022-09-23T09:25:45.820Z,26.07
2022-09-23T09:28:23.489Z,26.12
2022-09-23T09:30:59.958Z,26.20
2022-09-23T09:33:48.600Z,26.19
2022-09-23T09:36:30.864Z,26.04
2022-09-23T09:39:02.120Z,25.90
2022-09-23T09:41:32.108Z,25.97
2022-09-23T09:44:10.084Z,25.89
2022-09-23T09:47:29.108Z,25.87
2022-09-23T09:50:08.117Z,25.76
2022-09-23T09:52:40.360Z,25.96
2022-09-23T09:55:13.745Z,25.92
2022-09-23T09:57:48.899Z,26.08
2022-09-23T10:00:22.494Z,26.11
2022-09-23T10:02:54.810Z,26.11
2022-09-23T10:05:45.632Z,26.16
2022-09-23T10:08:19.144Z,26.13
2022-09-23T10:11:16.757Z,26.19
2022-09-23T10:14:11.357Z,26.33
2022-09-23T10:16:40.368Z,26.38
2022-09-23T10:19:26.538Z,26.47
2022-09-23T10:22:00.395Z,26.42
2022-09-23T10:24:33.027Z,26.50
2022-09-23T10:27:04.650Z,26.38
2022-09-23T10:29:49.486Z,26.47
2022-09-23T10:32:43.674Z,26.39
2022-09-23T10:35:13.645Z,26.48
2022-09-23T10:37:45.170Z,26.49
2022-09-23T10:40:43.086Z,26.69
2022-09-23T10:44:17.506Z,26.72
2022-09-23T10:46:58.034Z,26.72
2022-09-23T10:49:41.362Z,26.69
2022-09-23T10:52:33.046Z,26.69
2022-09-23T10:55:47.036Z,26.78
2022-09-23T10:58:27.295Z,26.95
2022-09-23T11:01:26.238Z,27.08
2022-09-23T11:04:35.612Z,27.16
2022-09-23T11:07:35.029Z,27.20
2022-09-23T11:10:47.673Z,26.93
2022-09-23T11:13:44.178Z,26.97
2022-09-23T11:16:42.262Z,26.99
2022-09-23T11:19:32.877Z,27.07
2022-09-23T11:22:23.925Z,27.10
2022-09-23T11:25:19.204Z,27.05
2022-09-23T11:27:46.397Z,27.09
2022-09-23T11:30:20.457Z,26.90
2022-09-23T11:33:13.693Z,26.90
2022-09-23T11:35:51.712Z,26.94
2022-09-23T11:38:26.797Z,26.90
2022-09-23T11:41:03.012Z,26.80
2022-09-23T11:43:40.160Z,26.72
2022-09-23T11:46:24.054Z,26.76
2022-09-23T11:49:18.920Z,26.59
2022-09-23T11:52:14.113Z,26.67
2022-09-23T11:54:47.210Z,26.59
2022-09-23T11:57:47.843Z,26.64
2022-09-23T12:00:16.600Z,26.88
2022-09-23T12:03:05.430Z,27.11
2022-09-23T12:05:45.015Z,27.19
2022-09-23T12:08:37.374Z,27.35
2022-09-23T12:11:16.696Z,27.43
2022-09-23T12:13:53.452Z,27.37
2022-09-23T12:16:49.716Z,27.33
2022-09-23T12:19:23.267Z,27.18
2022-09-23T12:21:51.545Z,27.11
2022-09-23T12:24:56.243Z,27.02
2022-09-23T12:27:55.526Z,27.07
2022-09-23T12:30:27.609Z,27.01
2022-09-23T12:33:28.420Z,27.08
2022-09-23T12:36:08.967Z,27.12
2022-09-23T12:39:04.843Z,27.07
2022-09-23T12:41:44.928Z,27.10
2022-09-23T12:44:31.979Z,27.09
2022-09-23T12:47:29.524Z,27.07
2022-09-23T12:49:57.607Z,27.26
2022-09-23T12:52:28.060Z,27.40
2022-09-23T12:55:17.243Z,27.54
2022-09-23T12:57:45.042Z,27.60
2022-09-23T13:00:34.163Z,27.63
2022-09-23T13:03:21.049Z,27.61
2022-09-23T13:06:11.855Z,27.70
2022-09-23T13:08:43.900Z,27.60
2022-09-23T13:11:32.177Z,27.67
2022-09-23T13:14:05.294Z,27.72
2022-09-23T13:16:51.644Z,27.76
2022-09-23T13:19:38.687Z,27.83
2022-09-23T13:22:14.210Z,27.84
2022-09-23T13:24:52.618Z,27.86
2022-09-23T13:27:31.731Z,27.78
2022-09-23T13:30:08.108Z,27.68
2022-09-23T13:32:46.407Z,27.52
2022-09-23T13:35:14.718Z,27.51
2022-09-23T13:37:51.146Z,27.58
2022-09-23T13:40:28.964Z,27.65
2022-09-23T13:43:28.811Z,27.49
2022-09-23T13:45:56.523Z,27.62
2022-09-23T13:48:27.358Z,27.56
2022-09-23T13:50:56.535Z,27.65
2022-09-23T13:53:33.021Z,27.68
2022-09-23T13:56:14.993Z,27.74
2022-09-23T13:58:44.662Z,27.76
2022-09-23T14:01:43.090Z,27.77
2022-09-23T14:04:24.818Z,27.73
2022-09-23T14:06:53.702Z,27.76
2022-09-23T14:09:27.786Z,27.75
2022-09-23T14:11:59.805Z,27.80
2022-09-23T14:14:30.691Z,27.78
2022-09-23T14:16:59.677Z,27.80
2022-09-23T14:19:27.583Z,27.84
2022-09-23T14:21:56.939Z,27.82
2022-09-23T14:24:32.312Z,27.72
2022-09-23T14:27:02.522Z,27.72
2022-09-23T14:29:42.819Z,27.63
2022-09-23T14:32:26.300Z,27.60
2022-09-23T14:35:18.767Z,27.47
2022-09-23T14:38:10.661Z,27.50
2022-09-23T14:41:18.532Z,27.42
2022-09-23T14:43:51.632Z,27.39
2022-09-23T14:46:21.687Z,27.37
2022-09-23T14:49:20.900Z,27.36
2022-09-23T14:52:08.139Z,27.43
2022-09-23T14:54:40.188Z,27.45
2022-09-23T14:57:26.619Z,27.46
2022-09-23T15:00:16.603Z,27.42
2022-09-23T15:02:46.292Z,27.41
2022-09-23T15:05:31.494Z,27.40
2022-09-23T15:08:02.599Z,27.39
2022-09-23T15:10:37.958Z,27.43
2022-09-23T15:13:13.394Z,27.44
2022-09-23T15:15:44.442Z,27.44
2022-09-23T15:18:30.334Z,27.42
2022-09-23T15:21:12.510Z,27.30
2022-09-23T15:23:57.900Z,27.31
2022-09-23T15:26:49.266Z,27.23
2022-09-23T15:29:17.588Z,27.27
2022-09-23T15:31:45.636Z,27.27
2022-09-23T15:34:19.507Z,27.13
2022-09-23T15:36:47.644Z,27.09
2022-09-23T15:39:15.601Z,27.04
2022-09-23T15:41:43.798Z,27.03
2022-09-23T15:44:21.891Z,27.00
2022-09-23T15:46:56.135Z,26.93
2022-09-23T15:49:34.755Z,26.95
2022-09-23T15:52:09.821Z,26.96
2022-09-23T15:54:38.501Z,26.95
2022-09-23T15:57:06.018Z,26.98
2022-09-23T15:59:34.617Z,26.96
2022-09-23T16:02:15.297Z,26.91
2022-09-23T16:04:42.877Z,26.91
2022-09-23T16:07:17.384Z,26.89
2022-09-23T16:09:45.464Z,26.80
2022-09-23T16:12:15.018Z,26.75
2022-09-23T16:14:43.144Z,26.85
2022-09-23T16:17:14.808Z,26.79
2022-09-23T16:19:57.704Z,26.81
2022-09-23T16:22:28.642Z,26.80
2022-09-23T16:25:11.119Z,26.74
2022-09-23T16:27:52.892Z,26.73
2022-09-23T16:30:34.295Z,26.64
2022-09-23T16:33:14.897Z,26.63
2022-09-23T16:35:42.602Z,26.70
2022-09-23T16:38:10.469Z,26.64
2022-09-23T16:40:47.318Z,26.63
2022-09-23T16:43:15.432Z,26.68
2022-09-23T16:45:43.193Z,26.67
2022-09-23T16:48:11.790Z,26.65
2022-09-23T16:50:45.013Z,26.56
2022-09-23T16:53:12.230Z,26.61
2022-09-23T16:55:41.256Z,26.62
2022-09-23T16:58:09.231Z,26.67
2022-09-23T17:01:04.703Z,26.58
2022-09-23T17:03:43.836Z,26.56
2022-09-23T17:06:13.717Z,26.56
2022-09-23T17:08:48.690Z,26.57
2022-09-23T17:11:17.353Z,26.48
2022-09-23T17:13:45.681Z,26.45
2022-09-23T17:16:29.616Z,26.45
2022-09-23T17:18:58.060Z,26.37
2022-09-23T17:21:27.639Z,26.29
2022-09-23T17:23:56.841Z,26.27
2022-09-23T17:26:25.982Z,26.26
2022-09-23T17:28:55.053Z,26.27
2022-09-23T17:31:24.637Z,26.23
2022-09-23T17:33:53.477Z,26.23
2022-09-23T17:36:21.628Z,26.13
2022-09-23T17:38:50.165Z,26.14
2022-09-23T17:41:18.976Z,26.14
2022-09-23T17:43:47.335Z,26.13
2022-09-23T17:46:18.422Z,26.12
2022-09-23T17:48:58.905Z,26.12
2022-09-23T17:51:37.027Z,26.09
2022-09-23T17:54:25.461Z,26.11
2022-09-23T17:56:58.193Z,26.11
2022-09-23T18:00:02.944Z,26.07
2022-09-23T18:03:07.135Z,26.00
2022-09-23T18:06:13.149Z,26.01
2022-09-23T18:09:09.605Z,25.99
2022-09-23T18:11:59.984Z,25.97
2022-09-23T18:14:42.596Z,25.94
2022-09-23T18:17:31.173Z,25.89
2022-09-23T18:20:39.837Z,25.92
2022-09-23T18:23:39.178Z,25.93
2022-09-23T18:26:30.268Z,25.95
2022-09-23T18:29:13.776Z,25.92
2022-09-23T18:32:21.338Z,25.91
2022-09-23T18:34:58.642Z,25.80
2022-09-23T18:37:41.897Z,25.79
2022-09-23T18:40:21.008Z,25.77
2022-09-23T18:42:56.597Z,25.66
2022-09-23T18:45:33.619Z,25.66
2022-09-23T18:48:26.121Z,25.63
2022-09-23T18:51:02.014Z,25.59
2022-09-23T18:53:33.144Z,25.62
2022-09-23T18:56:06.243Z,25.61
2022-09-23T18:58:36.638Z,25.60
2022-09-23T19:01:09.324Z,25.58
2022-09-23T19:03:38.333Z,25.58
2022-09-23T19:06:21.047Z,25.57
2022-09-23T19:08:56.418Z,25.51
2022-09-23T19:11:27.155Z,25.46
2022-09-23T19:14:18.549Z,25.44
2022-09-23T19:16:51.347Z,25.44
2022-09-23T19:19:19.583Z,25.41
2022-09-23T19:21:48.402Z,25.44
2022-09-23T19:24:23.038Z,25.44
2022-09-23T19:26:59.269Z,25.43
2022-09-23T19:29:28.983Z,25.42
2022-09-23T19:32:00.678Z,25.38
2022-09-23T19:34:30.781Z,25.38
2022-09-23T19:37:13.046Z,25.37
2022-09-23T19:39:45.014Z,25.39
2022-09-23T19:42:13.132Z,25.37
2022-09-23T19:44:41.392Z,25.38
2022-09-23T19:47:19.474Z,25.37
2022-09-23T19:49:50.641Z,25.39
2022-09-23T19:52:18.391Z,25.33
2022-09-23T19:54:48.955Z,25.30
2022-09-23T19:57:16.311Z,25.30
2022-09-23T19:59:43.659Z,25.27
2022-09-23T20:02:16.101Z,25.31
2022-09-23T20:04:43.596Z,25.34
2022-09-23T20:07:11.143Z,25.31
2022-09-23T20:09:47.533Z,25.32
2022-09-23T20:12:18.039Z,25.32
2022-09-23T20:14:45.793Z,25.28
2022-09-23T20:17:13.918Z,25.23
2022-09-23T20:19:47.790Z,25.18
2022-09-23T20:22:32.961Z,25.17
2022-09-23T20:25:05.133Z,25.18
2022-09-23T20:27:33.731Z,25.22
2022-09-23T20:30:03.544Z,25.19
2022-09-23T20:32:31.615Z,25.20
2022-09-23T20:34:59.299Z,25.24
2022-09-23T20:37:26.825Z,25.25
2022-09-23T20:39:54.398Z,25.20
2022-09-23T20:42:22.521Z,25.19
2022-09-23T20:44:50.487Z,25.15
2022-09-23T20:47:19.099Z,25.14
2022-09-23T20:49:47.043Z,25.12
2022-09-23T20:52:17.749Z,25.11
2022-09-23T20:54:45.118Z,25.10
2022-09-23T20:57:15.524Z,25.05
2022-09-23T20:59:45.968Z,24.96
2022-09-23T21:02:13.971Z,24.98
2022-09-23T21:04:41.622Z,24.94
2022-09-23T21:07:10.068Z,24.89
2022-09-23T21:09:37.284Z,24.91
2022-09-23T21:12:04.852Z,24.91
2022-09-23T21:14:33.483Z,24.87
2022-09-23T21:17:00.992Z,24.84
2022-09-23T21:19:28.746Z,24.79
2022-09-23T21:22:03.620Z,24.68
2022-09-23T21:25:12.159Z,24.59
2022-09-23T21:27:23.459Z,24.59
2022-09-23T21:29:57.405Z,24.53
2022-09-23T21:35:24.313Z,24.40
2022-09-23T21:38:03.447Z,24.36
2022-09-23T21:41:04.483Z,24.33
2022-09-23T21:43:40.866Z,24.31
2022-09-23T21:46:11.062Z,24.34
2022-09-23T21:49:03.943Z,24.27
2022-09-23T21:51:56.369Z,24.27
2022-09-23T21:54:27.124Z,24.25
2022-09-23T21:56:59.206Z,24.27
2022-09-23T21:59:46.423Z,24.19
2022-09-23T22:02:14.669Z,24.24
2022-09-23T22:04:45.823Z,24.23
2022-09-23T22:07:58.971Z,24.26
2022-09-23T22:10:27.294Z,24.20
2022-09-23T22:12:55.153Z,24.21
2022-09-23T22:15:23.823Z,24.19
2022-09-23T22:17:52.939Z,24.21
2022-09-23T22:20:21.379Z,24.17
2022-09-23T22:22:48.956Z,24.15
2022-09-23T22:25:21.868Z,24.12
2022-09-23T22:28:10.927Z,24.09
2022-09-23T22:31:05.773Z,24.10
2022-09-23T22:33:36.567Z,24.09
2022-09-23T22:36:11.758Z,24.12
2022-09-23T22:38:39.860Z,24.06
2022-09-23T22:41:07.903Z,24.10
2022-09-23T22:43:41.583Z,24.13
2022-09-23T22:46:09.693Z,24.02
2022-09-23T22:48:37.260Z,23.92
2022-09-23T22:51:06.213Z,23.97
2022-09-23T22:53:34.030Z,24.02
2022-09-23T22:56:07.108Z,24.02
2022-09-23T22:58:41.026Z,24.05
2022-09-23T23:01:11.594Z,24.05
2022-09-23T23:04:13.314Z,24.07
2022-09-23T23:06:55.736Z,24.07
2022-09-23T23:09:24.619Z,24.07
2022-09-23T23:12:09.901Z,24.04
2022-09-23T23:14:39.306Z,24.06
2022-09-23T23:17:08.084Z,24.08
2022-09-23T23:19:42.179Z,24.08
2022-09-23T23:22:09.764Z,24.06
2022-09-23T23:24:37.523Z,24.07
2022-09-23T23:27:05.505Z,24.07
2022-09-23T23:29:33.101Z,24.04
2022-09-23T23:32:01.577Z,24.03
2022-09-23T23:34:29.549Z,24.03
2022-09-23T23:36:57.657Z,23.54
2022-09-23T23:39:29.876Z,22.83
2022-09-23T23:41:58.953Z,22.30
2022-09-23T23:44:28.026Z,22.04
2022-09-23T23:46:56.504Z,21.53
2022-09-23T23:49:24.943Z,21.76
2022-09-23T23:51:54.272Z,21.75
2022-09-23T23:54:22.748Z,21.46
2022-09-23T23:56:51.503Z,21.34
2022-09-23T23:59:21.776Z,21.37
